KDRI/DRI METAR and TAF weather

Enter ICAO airport designator
Station Type Date Time Source
KDRI METAR 2019/02/23 23:35 UTC NOAA

KDRI 232335Z AUTO 26003KT 10SM CLR 19/11 A2991 RMK AO2 T01910110


Station Type Date Time Source
KDRI Decoded METAR 2019/02/23 23:35 UTC NOAA

De Ridder, Beauregard Parish Airport, LA, United States (KDRI) 30-49-54N 093-20-23W
Feb 23, 2019 - 06:35 PM EST / 2019.02.23 2335 UTC
Wind: from the W (260 degrees) at 3 MPH (3 KT):0
Visibility: 10 mile(s):0
Sky conditions: clear
Temperature: 66.4 F (19.1 C)
Dew Point: 51.8 F (11.0 C)
Relative Humidity: 59%
Pressure (altimeter): 29.91 in. Hg (1012 hPa)
ob: KDRI 232335Z AUTO 26003KT 10SM CLR 19/11 A2991 RMK AO2 T01910110
cycle: 23

Station Type Date Time Source
KDRI TAF UTC NOAA

Error!


Example: see airport list